sensor_id;sensor_type;location;lat;lon;timestamp;P1;durP1;ratioP1;P2;durP2;ratioP2
8887;SDS011;4480;52.370;9.748;2023-05-03T00:01:39;4.25;;;2.40;;
8887;SDS011;4480;52.370;9.748;2023-05-03T00:04:08;7.70;;;2.42;;
8887;SDS011;4480;52.370;9.748;2023-05-03T00:06:35;5.28;;;2.30;;
8887;SDS011;4480;52.370;9.748;2023-05-03T00:09:02;4.00;;;3.00;;
8887;SDS011;4480;52.370;9.748;2023-05-03T00:11:29;4.85;;;2.63;;
8887;SDS011;4480;52.370;9.748;2023-05-03T00:13:55;5.75;;;2.60;;
8887;SDS011;4480;52.370;9.748;2023-05-03T00:16:22;2.63;;;2.40;;
8887;SDS011;4480;52.370;9.748;2023-05-03T00:18:49;4.32;;;2.50;;
8887;SDS011;4480;52.370;9.748;2023-05-03T00:21:17;4.10;;;2.83;;
8887;SDS011;4480;52.370;9.748;2023-05-03T00:23:44;7.15;;;2.58;;
8887;SDS011;4480;52.370;9.748;2023-05-03T00:26:10;4.63;;;2.58;;
8887;SDS011;4480;52.370;9.748;2023-05-03T00:28:37;4.38;;;2.47;;
8887;SDS011;4480;52.370;9.748;2023-05-03T00:31:07;7.80;;;3.10;;
8887;SDS011;4480;52.370;9.748;2023-05-03T00:33:34;4.20;;;2.50;;
8887;SDS011;4480;52.370;9.748;2023-05-03T00:36:05;2.95;;;2.65;;
8887;SDS011;4480;52.370;9.748;2023-05-03T00:38:34;4.03;;;2.67;;
8887;SDS011;4480;52.370;9.748;2023-05-03T00:41:01;3.65;;;2.75;;
8887;SDS011;4480;52.370;9.748;2023-05-03T00:43:29;5.55;;;2.85;;
8887;SDS011;4480;52.370;9.748;2023-05-03T00:45:55;5.75;;;3.20;;
8887;SDS011;4480;52.370;9.748;2023-05-03T00:48:23;3.80;;;2.50;;
8887;SDS011;4480;52.370;9.748;2023-05-03T00:50:50;6.38;;;3.25;;
8887;SDS011;4480;52.370;9.748;2023-05-03T00:53:18;5.57;;;3.90;;
8887;SDS011;4480;52.370;9.748;2023-05-03T00:55:47;2.88;;;2.55;;
8887;SDS011;4480;52.370;9.748;2023-05-03T00:58:16;8.57;;;3.30;;
8887;SDS011;4480;52.370;9.748;2023-05-03T01:00:43;4.32;;;3.45;;
8887;SDS011;4480;52.370;9.748;2023-05-03T01:03:10;5.05;;;2.88;;
8887;SDS011;4480;52.370;9.748;2023-05-03T01:05:39;3.90;;;2.83;;
8887;SDS011;4480;52.370;9.748;2023-05-03T01:08:17;3.95;;;2.97;;
8887;SDS011;4480;52.370;9.748;2023-05-03T01:10:54;7.43;;;3.10;;
8887;SDS011;4480;52.370;9.748;2023-05-03T01:13:27;4.18;;;3.35;;
8887;SDS011;4480;52.370;9.748;2023-05-03T01:16:03;5.85;;;2.97;;
8887;SDS011;4480;52.370;9.748;2023-05-03T01:18:36;3.35;;;2.75;;
8887;SDS011;4480;52.370;9.748;2023-05-03T01:21:05;9.18;;;3.20;;
8887;SDS011;4480;52.370;9.748;2023-05-03T01:23:35;6.25;;;3.13;;
8887;SDS011;4480;52.370;9.748;2023-05-03T01:26:14;8.20;;;3.63;;
8887;SDS011;4480;52.370;9.748;2023-05-03T01:28:44;4.45;;;3.60;;
8887;SDS011;4480;52.370;9.748;2023-05-03T01:31:11;5.05;;;3.13;;
8887;SDS011;4480;52.370;9.748;2023-05-03T01:33:46;5.13;;;3.30;;
8887;SDS011;4480;52.370;9.748;2023-05-03T01:36:19;6.88;;;3.55;;
8887;SDS011;4480;52.370;9.748;2023-05-03T01:38:51;4.63;;;2.95;;
8887;SDS011;4480;52.370;9.748;2023-05-03T01:41:20;6.95;;;3.42;;
8887;SDS011;4480;52.370;9.748;2023-05-03T01:43:49;4.40;;;3.60;;
8887;SDS011;4480;52.370;9.748;2023-05-03T01:46:17;3.75;;;3.15;;
8887;SDS011;4480;52.370;9.748;2023-05-03T01:48:44;7.97;;;3.10;;
8887;SDS011;4480;52.370;9.748;2023-05-03T01:51:12;3.08;;;2.78;;
8887;SDS011;4480;52.370;9.748;2023-05-03T01:53:39;5.35;;;3.50;;
8887;SDS011;4480;52.370;9.748;2023-05-03T01:56:06;5.13;;;3.55;;
8887;SDS011;4480;52.370;9.748;2023-05-03T01:58:34;4.05;;;3.25;;
8887;SDS011;4480;52.370;9.748;2023-05-03T02:01:02;5.05;;;4.00;;
8887;SDS011;4480;52.370;9.748;2023-05-03T02:03:30;8.07;;;3.80;;
8887;SDS011;4480;52.370;9.748;2023-05-03T02:05:57;4.90;;;3.70;;
8887;SDS011;4480;52.370;9.748;2023-05-03T02:08:24;5.70;;;3.03;;
8887;SDS011;4480;52.370;9.748;2023-05-03T02:10:51;7.43;;;3.47;;
8887;SDS011;4480;52.370;9.748;2023-05-03T02:13:17;9.10;;;3.80;;
8887;SDS011;4480;52.370;9.748;2023-05-03T02:15:46;7.72;;;3.78;;
8887;SDS011;4480;52.370;9.748;2023-05-03T02:18:12;5.43;;;3.58;;
8887;SDS011;4480;52.370;9.748;2023-05-03T02:20:43;4.88;;;3.67;;
8887;SDS011;4480;52.370;9.748;2023-05-03T02:23:10;9.48;;;3.55;;
8887;SDS011;4480;52.370;9.748;2023-05-03T02:25:37;5.80;;;3.50;;
8887;SDS011;4480;52.370;9.748;2023-05-03T02:28:04;5.38;;;2.80;;
8887;SDS011;4480;52.370;9.748;2023-05-03T02:30:31;4.78;;;3.35;;
8887;SDS011;4480;52.370;9.748;2023-05-03T02:33:01;5.03;;;3.58;;
8887;SDS011;4480;52.370;9.748;2023-05-03T02:35:28;3.78;;;3.40;;
8887;SDS011;4480;52.370;9.748;2023-05-03T02:37:54;4.85;;;3.75;;
8887;SDS011;4480;52.370;9.748;2023-05-03T02:40:21;7.78;;;3.38;;
8887;SDS011;4480;52.370;9.748;2023-05-03T02:42:48;8.00;;;4.75;;
8887;SDS011;4480;52.370;9.748;2023-05-03T02:45:14;5.90;;;3.92;;
8887;SDS011;4480;52.370;9.748;2023-05-03T02:47:41;6.30;;;3.80;;
8887;SDS011;4480;52.370;9.748;2023-05-03T02:50:09;4.38;;;3.92;;
8887;SDS011;4480;52.370;9.748;2023-05-03T02:52:36;7.25;;;3.50;;
8887;SDS011;4480;52.370;9.748;2023-05-03T02:55:03;7.75;;;3.85;;
8887;SDS011;4480;52.370;9.748;2023-05-03T02:57:31;6.75;;;4.28;;
8887;SDS011;4480;52.370;9.748;2023-05-03T02:59:57;5.28;;;3.55;;
8887;SDS011;4480;52.370;9.748;2023-05-03T03:02:24;5.03;;;3.65;;
8887;SDS011;4480;52.370;9.748;2023-05-03T03:04:51;5.57;;;4.50;;
8887;SDS011;4480;52.370;9.748;2023-05-03T03:07:19;7.75;;;4.30;;
8887;SDS011;4480;52.370;9.748;2023-05-03T03:09:46;7.47;;;4.80;;
8887;SDS011;4480;52.370;9.748;2023-05-03T03:12:13;7.55;;;4.45;;
8887;SDS011;4480;52.370;9.748;2023-05-03T03:14:40;5.00;;;4.00;;
8887;SDS011;4480;52.370;9.748;2023-05-03T03:17:09;9.25;;;5.45;;
8887;SDS011;4480;52.370;9.748;2023-05-03T03:19:37;12.70;;;4.47;;
8887;SDS011;4480;52.370;9.748;2023-05-03T03:22:03;10.73;;;4.45;;
8887;SDS011;4480;52.370;9.748;2023-05-03T03:24:31;18.27;;;5.75;;
8887;SDS011;4480;52.370;9.748;2023-05-03T03:26:58;7.25;;;4.47;;
8887;SDS011;4480;52.370;9.748;2023-05-03T03:29:25;8.98;;;5.32;;
8887;SDS011;4480;52.370;9.748;2023-05-03T03:31:52;7.90;;;4.65;;
8887;SDS011;4480;52.370;9.748;2023-05-03T03:34:18;10.68;;;4.63;;
8887;SDS011;4480;52.370;9.748;2023-05-03T03:36:45;10.40;;;5.03;;
8887;SDS011;4480;52.370;9.748;2023-05-03T03:39:12;7.93;;;4.90;;
8887;SDS011;4480;52.370;9.748;2023-05-03T03:41:40;7.38;;;4.90;;
8887;SDS011;4480;52.370;9.748;2023-05-03T03:44:07;7.50;;;4.75;;
8887;SDS011;4480;52.370;9.748;2023-05-03T03:46:34;7.65;;;4.50;;
8887;SDS011;4480;52.370;9.748;2023-05-03T03:49:00;7.68;;;4.82;;
8887;SDS011;4480;52.370;9.748;2023-05-03T03:51:27;8.00;;;4.38;;
8887;SDS011;4480;52.370;9.748;2023-05-03T03:53:54;6.32;;;4.72;;
8887;SDS011;4480;52.370;9.748;2023-05-03T03:56:20;11.50;;;5.40;;
8887;SDS011;4480;52.370;9.748;2023-05-03T03:58:49;9.70;;;5.70;;
8887;SDS011;4480;52.370;9.748;2023-05-03T04:01:15;12.30;;;4.32;;
8887;SDS011;4480;52.370;9.748;2023-05-03T04:03:43;8.32;;;5.40;;
8887;SDS011;4480;52.370;9.748;2023-05-03T04:06:11;8.93;;;5.80;;
8887;SDS011;4480;52.370;9.748;2023-05-03T04:11:37;9.23;;;6.05;;
8887;SDS011;4480;52.370;9.748;2023-05-03T04:14:04;8.75;;;5.00;;
8887;SDS011;4480;52.370;9.748;2023-05-03T04:16:31;8.27;;;5.43;;
8887;SDS011;4480;52.370;9.748;2023-05-03T04:18:57;9.40;;;5.35;;
8887;SDS011;4480;52.370;9.748;2023-05-03T04:21:24;7.90;;;5.32;;
8887;SDS011;4480;52.370;9.748;2023-05-03T04:23:52;13.45;;;5.53;;
8887;SDS011;4480;52.370;9.748;2023-05-03T04:26:19;10.65;;;5.35;;
8887;SDS011;4480;52.370;9.748;2023-05-03T04:28:47;7.25;;;5.05;;
8887;SDS011;4480;52.370;9.748;2023-05-03T04:31:16;9.80;;;5.10;;
8887;SDS011;4480;52.370;9.748;2023-05-03T04:33:43;10.02;;;4.85;;
8887;SDS011;4480;52.370;9.748;2023-05-03T04:36:11;9.27;;;4.70;;
8887;SDS011;4480;52.370;9.748;2023-05-03T04:38:40;8.77;;;4.78;;
8887;SDS011;4480;52.370;9.748;2023-05-03T04:41:06;6.43;;;4.55;;
8887;SDS011;4480;52.370;9.748;2023-05-03T04:43:33;7.72;;;4.15;;
8887;SDS011;4480;52.370;9.748;2023-05-03T04:46:01;5.82;;;3.90;;
8887;SDS011;4480;52.370;9.748;2023-05-03T04:48:28;7.97;;;4.57;;
8887;SDS011;4480;52.370;9.748;2023-05-03T04:50:55;7.70;;;5.07;;
8887;SDS011;4480;52.370;9.748;2023-05-03T04:53:23;5.95;;;4.30;;
8887;SDS011;4480;52.370;9.748;2023-05-03T04:55:49;10.00;;;5.00;;
8887;SDS011;4480;52.370;9.748;2023-05-03T04:58:25;7.03;;;4.87;;
8887;SDS011;4480;52.370;9.748;2023-05-03T05:00:52;7.23;;;4.87;;
8887;SDS011;4480;52.370;9.748;2023-05-03T05:03:20;8.00;;;4.30;;
8887;SDS011;4480;52.370;9.748;2023-05-03T05:05:47;9.13;;;4.97;;
8887;SDS011;4480;52.370;9.748;2023-05-03T05:08:15;8.40;;;4.80;;
8887;SDS011;4480;52.370;9.748;2023-05-03T05:10:42;12.20;;;4.97;;
8887;SDS011;4480;52.370;9.748;2023-05-03T05:13:08;10.20;;;4.60;;
8887;SDS011;4480;52.370;9.748;2023-05-03T05:15:35;8.27;;;4.47;;
8887;SDS011;4480;52.370;9.748;2023-05-03T05:18:02;6.90;;;4.20;;
8887;SDS011;4480;52.370;9.748;2023-05-03T05:20:30;7.53;;;4.40;;
8887;SDS011;4480;52.370;9.748;2023-05-03T05:22:57;6.90;;;5.33;;
8887;SDS011;4480;52.370;9.748;2023-05-03T05:25:24;8.60;;;4.63;;
8887;SDS011;4480;52.370;9.748;2023-05-03T05:27:51;7.57;;;4.50;;
8887;SDS011;4480;52.370;9.748;2023-05-03T05:30:18;8.33;;;4.17;;
8887;SDS011;4480;52.370;9.748;2023-05-03T05:32:45;9.80;;;4.63;;
8887;SDS011;4480;52.370;9.748;2023-05-03T05:35:11;9.07;;;4.07;;
8887;SDS011;4480;52.370;9.748;2023-05-03T05:37:42;5.63;;;3.77;;
8887;SDS011;4480;52.370;9.748;2023-05-03T05:40:10;7.07;;;4.80;;
8887;SDS011;4480;52.370;9.748;2023-05-03T05:42:37;7.23;;;4.37;;
8887;SDS011;4480;52.370;9.748;2023-05-03T05:45:04;6.10;;;3.77;;
8887;SDS011;4480;52.370;9.748;2023-05-03T05:47:32;7.20;;;4.10;;
8887;SDS011;4480;52.370;9.748;2023-05-03T05:49:59;6.47;;;4.43;;
8887;SDS011;4480;52.370;9.748;2023-05-03T05:52:26;5.50;;;3.80;;
8887;SDS011;4480;52.370;9.748;2023-05-03T05:54:54;6.97;;;4.00;;
8887;SDS011;4480;52.370;9.748;2023-05-03T05:57:21;8.00;;;4.63;;
8887;SDS011;4480;52.370;9.748;2023-05-03T05:59:48;6.63;;;4.17;;
8887;SDS011;4480;52.370;9.748;2023-05-03T06:02:15;8.13;;;5.03;;
8887;SDS011;4480;52.370;9.748;2023-05-03T06:04:42;7.07;;;4.20;;
8887;SDS011;4480;52.370;9.748;2023-05-03T06:07:10;7.47;;;4.40;;
8887;SDS011;4480;52.370;9.748;2023-05-03T06:09:37;5.40;;;4.38;;
8887;SDS011;4480;52.370;9.748;2023-05-03T06:12:06;4.90;;;4.05;;
8887;SDS011;4480;52.370;9.748;2023-05-03T06:14:34;7.22;;;4.93;;
8887;SDS011;4480;52.370;9.748;2023-05-03T06:17:01;7.32;;;4.88;;
8887;SDS011;4480;52.370;9.748;2023-05-03T06:19:28;8.73;;;5.07;;
8887;SDS011;4480;52.370;9.748;2023-05-03T06:21:54;7.05;;;4.90;;
8887;SDS011;4480;52.370;9.748;2023-05-03T06:24:21;7.97;;;5.07;;
8887;SDS011;4480;52.370;9.748;2023-05-03T06:26:55;5.90;;;3.97;;
8887;SDS011;4480;52.370;9.748;2023-05-03T06:29:24;7.22;;;4.22;;
8887;SDS011;4480;52.370;9.748;2023-05-03T06:31:52;4.63;;;4.18;;
8887;SDS011;4480;52.370;9.748;2023-05-03T06:34:19;7.07;;;4.65;;
8887;SDS011;4480;52.370;9.748;2023-05-03T06:39:34;6.78;;;4.40;;
8887;SDS011;4480;52.370;9.748;2023-05-03T06:42:01;5.97;;;3.40;;
8887;SDS011;4480;52.370;9.748;2023-05-03T06:44:33;6.65;;;2.92;;
8887;SDS011;4480;52.370;9.748;2023-05-03T06:47:00;4.15;;;3.42;;
8887;SDS011;4480;52.370;9.748;2023-05-03T06:49:26;6.00;;;3.55;;
8887;SDS011;4480;52.370;9.748;2023-05-03T06:51:53;4.28;;;3.88;;
8887;SDS011;4480;52.370;9.748;2023-05-03T06:54:20;7.10;;;4.20;;
8887;SDS011;4480;52.370;9.748;2023-05-03T06:56:47;6.10;;;3.22;;
8887;SDS011;4480;52.370;9.748;2023-05-03T06:59:14;2.90;;;2.38;;
8887;SDS011;4480;52.370;9.748;2023-05-03T07:01:42;5.55;;;3.40;;
8887;SDS011;4480;52.370;9.748;2023-05-03T07:04:10;5.45;;;2.58;;
8887;SDS011;4480;52.370;9.748;2023-05-03T07:06:36;3.17;;;1.77;;
8887;SDS011;4480;52.370;9.748;2023-05-03T07:09:04;4.55;;;1.88;;
8887;SDS011;4480;52.370;9.748;2023-05-03T07:11:30;6.30;;;2.13;;
8887;SDS011;4480;52.370;9.748;2023-05-03T07:13:58;5.00;;;1.70;;
8887;SDS011;4480;52.370;9.748;2023-05-03T07:16:25;5.22;;;2.03;;
8887;SDS011;4480;52.370;9.748;2023-05-03T07:18:53;3.90;;;2.28;;
8887;SDS011;4480;52.370;9.748;2023-05-03T07:21:20;2.60;;;2.10;;
8887;SDS011;4480;52.370;9.748;2023-05-03T07:23:47;3.08;;;1.80;;
8887;SDS011;4480;52.370;9.748;2023-05-03T07:26:13;3.90;;;1.88;;
8887;SDS011;4480;52.370;9.748;2023-05-03T07:28:40;3.95;;;2.00;;
8887;SDS011;4480;52.370;9.748;2023-05-03T07:31:07;2.03;;;1.70;;
8887;SDS011;4480;52.370;9.748;2023-05-03T07:33:34;2.50;;;1.70;;
8887;SDS011;4480;52.370;9.748;2023-05-03T07:36:03;2.97;;;1.47;;
8887;SDS011;4480;52.370;9.748;2023-05-03T07:38:30;5.47;;;1.90;;
8887;SDS011;4480;52.370;9.748;2023-05-03T07:40:58;2.40;;;1.80;;
8887;SDS011;4480;52.370;9.748;2023-05-03T07:43:25;2.50;;;1.60;;
8887;SDS011;4480;52.370;9.748;2023-05-03T07:45:53;2.33;;;1.57;;
8887;SDS011;4480;52.370;9.748;2023-05-03T07:48:20;2.60;;;1.50;;
8887;SDS011;4480;52.370;9.748;2023-05-03T07:50:46;6.60;;;1.60;;
8887;SDS011;4480;52.370;9.748;2023-05-03T07:53:15;4.37;;;2.40;;
8887;SDS011;4480;52.370;9.748;2023-05-03T07:55:42;5.60;;;1.50;;
8887;SDS011;4480;52.370;9.748;2023-05-03T07:58:09;3.23;;;1.57;;
8887;SDS011;4480;52.370;9.748;2023-05-03T08:00:35;4.73;;;1.60;;
8887;SDS011;4480;52.370;9.748;2023-05-03T08:03:02;4.57;;;1.70;;
8887;SDS011;4480;52.370;9.748;2023-05-03T08:05:30;3.27;;;1.80;;
8887;SDS011;4480;52.370;9.748;2023-05-03T08:07:59;2.60;;;1.20;;
8887;SDS011;4480;52.370;9.748;2023-05-03T08:10:29;2.17;;;1.63;;
8887;SDS011;4480;52.370;9.748;2023-05-03T08:12:56;3.70;;;2.07;;
8887;SDS011;4480;52.370;9.748;2023-05-03T08:15:22;2.73;;;1.77;;
8887;SDS011;4480;52.370;9.748;2023-05-03T08:17:49;3.13;;;1.63;;
8887;SDS011;4480;52.370;9.748;2023-05-03T08:20:16;5.13;;;2.10;;
8887;SDS011;4480;52.370;9.748;2023-05-03T08:22:45;3.27;;;1.80;;
8887;SDS011;4480;52.370;9.748;2023-05-03T08:25:11;2.30;;;1.50;;
8887;SDS011;4480;52.370;9.748;2023-05-03T08:27:42;4.90;;;1.90;;
8887;SDS011;4480;52.370;9.748;2023-05-03T08:30:09;7.00;;;1.80;;
8887;SDS011;4480;52.370;9.748;2023-05-03T08:32:36;3.77;;;1.50;;
8887;SDS011;4480;52.370;9.748;2023-05-03T08:35:03;3.43;;;1.70;;
8887;SDS011;4480;52.370;9.748;2023-05-03T08:37:36;7.40;;;1.80;;
8887;SDS011;4480;52.370;9.748;2023-05-03T08:40:04;7.13;;;1.90;;
8887;SDS011;4480;52.370;9.748;2023-05-03T08:42:33;2.80;;;1.50;;
8887;SDS011;4480;52.370;9.748;2023-05-03T08:45:05;3.87;;;2.10;;
8887;SDS011;4480;52.370;9.748;2023-05-03T08:47:34;2.77;;;2.27;;
8887;SDS011;4480;52.370;9.748;2023-05-03T08:50:04;5.33;;;2.00;;
8887;SDS011;4480;52.370;9.748;2023-05-03T08:52:32;7.33;;;1.90;;
8887;SDS011;4480;52.370;9.748;2023-05-03T08:54:59;8.80;;;2.03;;
8887;SDS011;4480;52.370;9.748;2023-05-03T08:57:26;6.00;;;1.80;;
8887;SDS011;4480;52.370;9.748;2023-05-03T08:59:54;2.40;;;1.97;;
8887;SDS011;4480;52.370;9.748;2023-05-03T09:02:26;1.50;;;1.37;;
8887;SDS011;4480;52.370;9.748;2023-05-03T09:04:53;3.93;;;1.70;;
8887;SDS011;4480;52.370;9.748;2023-05-03T09:07:20;6.03;;;2.00;;
8887;SDS011;4480;52.370;9.748;2023-05-03T09:09:47;2.70;;;1.80;;
8887;SDS011;4480;52.370;9.748;2023-05-03T09:12:31;1.97;;;1.77;;
8887;SDS011;4480;52.370;9.748;2023-05-03T09:15:00;2.10;;;1.60;;
8887;SDS011;4480;52.370;9.748;2023-05-03T09:17:31;3.53;;;1.97;;
8887;SDS011;4480;52.370;9.748;2023-05-03T09:19:58;4.90;;;3.47;;
8887;SDS011;4480;52.370;9.748;2023-05-03T09:22:26;3.00;;;1.90;;
8887;SDS011;4480;52.370;9.748;2023-05-03T09:24:54;4.17;;;2.60;;
8887;SDS011;4480;52.370;9.748;2023-05-03T09:27:22;7.60;;;3.20;;
8887;SDS011;4480;52.370;9.748;2023-05-03T09:29:50;3.40;;;1.67;;
8887;SDS011;4480;52.370;9.748;2023-05-03T09:32:18;4.77;;;1.90;;
8887;SDS011;4480;52.370;9.748;2023-05-03T09:34:47;3.13;;;1.90;;
8887;SDS011;4480;52.370;9.748;2023-05-03T09:37:14;2.13;;;1.77;;
8887;SDS011;4480;52.370;9.748;2023-05-03T09:39:41;1.93;;;1.33;;
8887;SDS011;4480;52.370;9.748;2023-05-03T09:42:10;2.40;;;1.90;;
8887;SDS011;4480;52.370;9.748;2023-05-03T09:44:41;2.30;;;1.60;;
8887;SDS011;4480;52.370;9.748;2023-05-03T09:47:09;2.90;;;1.80;;
8887;SDS011;4480;52.370;9.748;2023-05-03T09:49:37;3.27;;;1.70;;
8887;SDS011;4480;52.370;9.748;2023-05-03T09:52:06;2.30;;;1.80;;
8887;SDS011;4480;52.370;9.748;2023-05-03T09:54:33;2.33;;;1.73;;
8887;SDS011;4480;52.370;9.748;2023-05-03T09:57:01;1.80;;;1.67;;
8887;SDS011;4480;52.370;9.748;2023-05-03T09:59:29;3.90;;;2.13;;
8887;SDS011;4480;52.370;9.748;2023-05-03T10:01:56;2.13;;;1.93;;
8887;SDS011;4480;52.370;9.748;2023-05-03T10:04:26;2.53;;;1.70;;
8887;SDS011;4480;52.370;9.748;2023-05-03T10:06:56;3.10;;;2.80;;
8887;SDS011;4480;52.370;9.748;2023-05-03T10:09:27;3.40;;;2.20;;
8887;SDS011;4480;52.370;9.748;2023-05-03T10:12:02;2.33;;;1.57;;
8887;SDS011;4480;52.370;9.748;2023-05-03T10:14:32;5.03;;;1.90;;
8887;SDS011;4480;52.370;9.748;2023-05-03T10:17:00;4.03;;;1.73;;
8887;SDS011;4480;52.370;9.748;2023-05-03T10:19:32;2.63;;;1.80;;
8887;SDS011;4480;52.370;9.748;2023-05-03T10:22:02;3.03;;;1.63;;
8887;SDS011;4480;52.370;9.748;2023-05-03T10:24:32;2.87;;;2.00;;
8887;SDS011;4480;52.370;9.748;2023-05-03T10:26:59;3.03;;;1.33;;
8887;SDS011;4480;52.370;9.748;2023-05-03T10:32:29;3.90;;;2.30;;
8887;SDS011;4480;52.370;9.748;2023-05-03T10:34:58;9.70;;;2.00;;
8887;SDS011;4480;52.370;9.748;2023-05-03T10:37:26;2.40;;;1.60;;
8887;SDS011;4480;52.370;9.748;2023-05-03T10:39:54;1.80;;;1.53;;
8887;SDS011;4480;52.370;9.748;2023-05-03T10:42:22;4.47;;;2.93;;
8887;SDS011;4480;52.370;9.748;2023-05-03T10:44:51;2.07;;;1.87;;
8887;SDS011;4480;52.370;9.748;2023-05-03T10:47:19;4.50;;;2.00;;
8887;SDS011;4480;52.370;9.748;2023-05-03T10:52:48;6.47;;;1.80;;
8887;SDS011;4480;52.370;9.748;2023-05-03T10:55:17;2.13;;;1.50;;
8887;SDS011;4480;52.370;9.748;2023-05-03T10:57:46;1.93;;;1.60;;
8887;SDS011;4480;52.370;9.748;2023-05-03T11:00:14;1.70;;;1.50;;
8887;SDS011;4480;52.370;9.748;2023-05-03T11:02:51;3.40;;;1.80;;
8887;SDS011;4480;52.370;9.748;2023-05-03T11:05:52;1.70;;;1.53;;
8887;SDS011;4480;52.370;9.748;2023-05-03T11:08:19;4.83;;;1.70;;
8887;SDS011;4480;52.370;9.748;2023-05-03T11:10:49;4.07;;;1.63;;
8887;SDS011;4480;52.370;9.748;2023-05-03T11:13:21;4.13;;;2.50;;
8887;SDS011;4480;52.370;9.748;2023-05-03T11:15:48;5.40;;;2.10;;
8887;SDS011;4480;52.370;9.748;2023-05-03T11:18:17;3.23;;;1.73;;
8887;SDS011;4480;52.370;9.748;2023-05-03T11:20:43;2.20;;;2.00;;
8887;SDS011;4480;52.370;9.748;2023-05-03T11:23:10;3.77;;;1.90;;
8887;SDS011;4480;52.370;9.748;2023-05-03T11:25:37;3.23;;;1.97;;
8887;SDS011;4480;52.370;9.748;2023-05-03T11:28:06;2.90;;;1.70;;
8887;SDS011;4480;52.370;9.748;2023-05-03T11:30:33;2.37;;;2.00;;
8887;SDS011;4480;52.370;9.748;2023-05-03T11:33:01;7.00;;;2.50;;
8887;SDS011;4480;52.370;9.748;2023-05-03T11:35:28;2.50;;;1.80;;
8887;SDS011;4480;52.370;9.748;2023-05-03T11:37:56;4.20;;;1.77;;
8887;SDS011;4480;52.370;9.748;2023-05-03T11:40:23;2.87;;;1.80;;
8887;SDS011;4480;52.370;9.748;2023-05-03T11:42:50;3.10;;;1.87;;
8887;SDS011;4480;52.370;9.748;2023-05-03T11:45:20;4.97;;;2.50;;
8887;SDS011;4480;52.370;9.748;2023-05-03T11:47:48;2.90;;;1.80;;
8887;SDS011;4480;52.370;9.748;2023-05-03T11:50:16;3.83;;;2.00;;
8887;SDS011;4480;52.370;9.748;2023-05-03T11:52:43;2.10;;;1.73;;
8887;SDS011;4480;52.370;9.748;2023-05-03T11:55:10;2.80;;;1.87;;
8887;SDS011;4480;52.370;9.748;2023-05-03T11:57:37;3.00;;;2.07;;
8887;SDS011;4480;52.370;9.748;2023-05-03T12:00:11;2.97;;;1.70;;
8887;SDS011;4480;52.370;9.748;2023-05-03T12:02:42;4.37;;;1.77;;
8887;SDS011;4480;52.370;9.748;2023-05-03T12:05:09;2.73;;;2.17;;
8887;SDS011;4480;52.370;9.748;2023-05-03T12:07:37;2.20;;;1.90;;
8887;SDS011;4480;52.370;9.748;2023-05-03T12:10:12;6.13;;;1.97;;
8887;SDS011;4480;52.370;9.748;2023-05-03T12:12:50;5.23;;;2.17;;
8887;SDS011;4480;52.370;9.748;2023-05-03T12:15:25;2.80;;;2.43;;
8887;SDS011;4480;52.370;9.748;2023-05-03T12:17:58;3.73;;;2.03;;
8887;SDS011;4480;52.370;9.748;2023-05-03T12:20:26;4.60;;;1.83;;
8887;SDS011;4480;52.370;9.748;2023-05-03T12:22:55;4.50;;;2.50;;
8887;SDS011;4480;52.370;9.748;2023-05-03T12:25:23;3.27;;;1.60;;
8887;SDS011;4480;52.370;9.748;2023-05-03T12:27:51;4.57;;;2.10;;
8887;SDS011;4480;52.370;9.748;2023-05-03T12:30:18;1.93;;;1.70;;
8887;SDS011;4480;52.370;9.748;2023-05-03T12:32:45;6.90;;;1.93;;
8887;SDS011;4480;52.370;9.748;2023-05-03T12:35:14;2.83;;;1.83;;
8887;SDS011;4480;52.370;9.748;2023-05-03T12:37:42;5.83;;;1.73;;
8887;SDS011;4480;52.370;9.748;2023-05-03T12:40:09;3.27;;;1.90;;
8887;SDS011;4480;52.370;9.748;2023-05-03T12:42:37;4.80;;;2.00;;
8887;SDS011;4480;52.370;9.748;2023-05-03T12:45:05;4.50;;;1.77;;
8887;SDS011;4480;52.370;9.748;2023-05-03T12:47:32;2.97;;;1.70;;
8887;SDS011;4480;52.370;9.748;2023-05-03T12:50:00;4.10;;;2.03;;
8887;SDS011;4480;52.370;9.748;2023-05-03T12:52:29;3.63;;;2.37;;
8887;SDS011;4480;52.370;9.748;2023-05-03T12:54:56;5.17;;;2.40;;
8887;SDS011;4480;52.370;9.748;2023-05-03T12:57:23;5.33;;;2.30;;
8887;SDS011;4480;52.370;9.748;2023-05-03T12:59:50;3.00;;;2.17;;
8887;SDS011;4480;52.370;9.748;2023-05-03T13:02:18;4.33;;;2.20;;
8887;SDS011;4480;52.370;9.748;2023-05-03T13:04:45;3.10;;;1.80;;
8887;SDS011;4480;52.370;9.748;2023-05-03T13:07:14;1.80;;;1.70;;
8887;SDS011;4480;52.370;9.748;2023-05-03T13:09:43;2.87;;;2.30;;
8887;SDS011;4480;52.370;9.748;2023-05-03T13:12:10;3.77;;;2.47;;
8887;SDS011;4480;52.370;9.748;2023-05-03T13:14:38;3.60;;;1.97;;
8887;SDS011;4480;52.370;9.748;2023-05-03T13:17:05;5.27;;;2.30;;
8887;SDS011;4480;52.370;9.748;2023-05-03T13:19:31;3.03;;;2.10;;
8887;SDS011;4480;52.370;9.748;2023-05-03T13:21:58;3.73;;;2.17;;
8887;SDS011;4480;52.370;9.748;2023-05-03T13:24:25;7.40;;;2.50;;
8887;SDS011;4480;52.370;9.748;2023-05-03T13:26:53;4.70;;;2.70;;
8887;SDS011;4480;52.370;9.748;2023-05-03T13:29:20;6.33;;;2.40;;
8887;SDS011;4480;52.370;9.748;2023-05-03T13:31:48;5.40;;;1.80;;
8887;SDS011;4480;52.370;9.748;2023-05-03T13:34:15;5.23;;;2.17;;
8887;SDS011;4480;52.370;9.748;2023-05-03T13:36:42;5.50;;;2.10;;
8887;SDS011;4480;52.370;9.748;2023-05-03T13:39:08;3.10;;;2.10;;
8887;SDS011;4480;52.370;9.748;2023-05-03T13:41:37;8.30;;;2.43;;
8887;SDS011;4480;52.370;9.748;2023-05-03T13:44:06;2.60;;;1.97;;
8887;SDS011;4480;52.370;9.748;2023-05-03T13:46:34;5.40;;;2.10;;
8887;SDS011;4480;52.370;9.748;2023-05-03T13:49:01;6.83;;;2.67;;
8887;SDS011;4480;52.370;9.748;2023-05-03T13:51:29;2.93;;;2.03;;
8887;SDS011;4480;52.370;9.748;2023-05-03T13:53:57;3.33;;;2.03;;
8887;SDS011;4480;52.370;9.748;2023-05-03T13:56:24;5.93;;;1.97;;
8887;SDS011;4480;52.370;9.748;2023-05-03T13:58:51;4.07;;;2.33;;
8887;SDS011;4480;52.370;9.748;2023-05-03T14:01:21;3.07;;;2.30;;
8887;SDS011;4480;52.370;9.748;2023-05-03T14:03:51;5.23;;;2.57;;
8887;SDS011;4480;52.370;9.748;2023-05-03T14:06:19;3.63;;;2.53;;
8887;SDS011;4480;52.370;9.748;2023-05-03T14:08:47;5.73;;;2.63;;
8887;SDS011;4480;52.370;9.748;2023-05-03T14:11:15;7.40;;;2.20;;
8887;SDS011;4480;52.370;9.748;2023-05-03T14:13:45;2.57;;;1.80;;
8887;SDS011;4480;52.370;9.748;2023-05-03T14:16:15;3.17;;;2.10;;
8887;SDS011;4480;52.370;9.748;2023-05-03T14:18:44;5.47;;;2.30;;
8887;SDS011;4480;52.370;9.748;2023-05-03T14:21:11;8.73;;;2.57;;
8887;SDS011;4480;52.370;9.748;2023-05-03T14:23:38;4.03;;;2.20;;
8887;SDS011;4480;52.370;9.748;2023-05-03T14:26:04;4.03;;;2.43;;
8887;SDS011;4480;52.370;9.748;2023-05-03T14:28:31;3.20;;;2.07;;
8887;SDS011;4480;52.370;9.748;2023-05-03T14:30:58;4.00;;;2.30;;
8887;SDS011;4480;52.370;9.748;2023-05-03T14:33:25;2.70;;;2.50;;
8887;SDS011;4480;52.370;9.748;2023-05-03T14:35:53;3.20;;;2.57;;
8887;SDS011;4480;52.370;9.748;2023-05-03T14:38:20;5.20;;;2.20;;
8887;SDS011;4480;52.370;9.748;2023-05-03T14:40:47;3.67;;;2.10;;
8887;SDS011;4480;52.370;9.748;2023-05-03T14:43:14;4.10;;;2.87;;
8887;SDS011;4480;52.370;9.748;2023-05-03T14:45:41;4.13;;;2.57;;
8887;SDS011;4480;52.370;9.748;2023-05-03T14:48:09;4.13;;;2.57;;
8887;SDS011;4480;52.370;9.748;2023-05-03T14:50:36;2.40;;;2.20;;
8887;SDS011;4480;52.370;9.748;2023-05-03T14:53:04;2.93;;;2.30;;
8887;SDS011;4480;52.370;9.748;2023-05-03T14:55:31;6.60;;;2.60;;
8887;SDS011;4480;52.370;9.748;2023-05-03T14:57:58;5.30;;;2.47;;
8887;SDS011;4480;52.370;9.748;2023-05-03T15:00:25;4.30;;;2.33;;
8887;SDS011;4480;52.370;9.748;2023-05-03T15:02:51;7.87;;;2.77;;
8887;SDS011;4480;52.370;9.748;2023-05-03T15:05:19;3.40;;;2.13;;
8887;SDS011;4480;52.370;9.748;2023-05-03T15:07:47;4.00;;;2.30;;
8887;SDS011;4480;52.370;9.748;2023-05-03T15:10:16;5.00;;;2.90;;
8887;SDS011;4480;52.370;9.748;2023-05-03T15:12:43;4.80;;;2.10;;
8887;SDS011;4480;52.370;9.748;2023-05-03T15:15:09;5.17;;;2.20;;
8887;SDS011;4480;52.370;9.748;2023-05-03T15:17:37;4.10;;;2.10;;
8887;SDS011;4480;52.370;9.748;2023-05-03T15:20:04;4.10;;;2.00;;
8887;SDS011;4480;52.370;9.748;2023-05-03T15:22:34;5.03;;;3.30;;
8887;SDS011;4480;52.370;9.748;2023-05-03T15:25:01;7.27;;;2.63;;
8887;SDS011;4480;52.370;9.748;2023-05-03T15:27:29;3.90;;;2.50;;
8887;SDS011;4480;52.370;9.748;2023-05-03T15:29:56;4.70;;;2.50;;
8887;SDS011;4480;52.370;9.748;2023-05-03T15:32:22;5.30;;;2.00;;